Time;durP1;ratioP1;P1;durP2;ratioP2;P2;SDS_P1;SDS_P2;PMS_P1;PMS_P2;Temp;Humidity;BMP_temperature;BMP_pressure;BME280_temperature;BME280_humidity;BME280_pressure;Samples;Min_cycle;Max_cycle;Signal;HPM_P1;HPM_P2
2022/09/07 00:02:07;;;;;;;6.05;2.90;;;;;;;-144.47;100.00;61586.06;5002477;28;20065;-80
2022/09/07 00:04:32;;;;;;;4.43;2.83;;;;;;;-144.47;100.00;61586.06;5002592;28;20101;-78
2022/09/07 00:06:57;;;;;;;7.30;4.53;;;;;;;-144.47;100.00;61586.06;4999407;28;20046;-81
2022/09/07 00:09:23;;;;;;;11.15;3.10;;;;;;;-144.47;100.00;61586.06;5002083;28;20032;-81
2022/09/07 00:11:48;;;;;;;4.78;2.95;;;;;;;-144.47;100.00;61586.06;4999101;28;20114;-81
2022/09/07 00:14:14;;;;;;;5.70;2.97;;;;;;;-144.47;100.00;61586.06;5003296;28;20061;-80
2022/09/07 00:16:39;;;;;;;4.45;2.58;;;;;;;-144.47;100.00;61586.06;5001366;28;20034;-80
2022/09/07 00:19:05;;;;;;;4.68;2.97;;;;;;;-144.47;100.00;61586.06;4999572;28;20022;-81
2022/09/07 00:21:31;;;;;;;4.60;2.80;;;;;;;-144.47;100.00;61586.06;5001556;28;20026;-79
2022/09/07 00:23:57;;;;;;;6.35;2.90;;;;;;;-144.47;100.00;61586.06;5016668;28;20064;-80
2022/09/07 00:26:26;;;;;;;7.65;3.22;;;;;;;-144.47;100.00;61586.06;5002345;28;20400;-78
2022/09/07 00:28:55;;;;;;;7.35;2.78;;;;;;;-144.47;100.00;61586.06;5031619;28;20083;-78
2022/09/07 00:31:22;;;;;;;4.65;3.00;;;;;;;-144.47;100.00;61586.06;5001482;28;20487;-79
2022/09/07 00:33:49;;;;;;;4.22;2.53;;;;;;;-144.47;100.00;61586.06;5003212;28;20500;-78
2022/09/07 00:36:16;;;;;;;3.33;2.63;;;;;;;-144.47;100.00;61586.06;5001010;28;20026;-79
2022/09/07 00:38:41;;;;;;;3.95;2.90;;;;;;;-144.47;100.00;61586.06;5001123;28;20471;-79
2022/09/07 00:41:08;;;;;;;4.28;3.00;;;;;;;-144.47;100.00;61586.06;4995747;28;20149;-79
2022/09/07 00:43:39;;;;;;;3.65;2.97;;;;;;;-144.47;100.00;61586.06;5002160;28;20049;-79
2022/09/07 00:46:11;;;;;;;4.78;2.70;;;;;;;-144.47;100.00;61586.06;4996505;28;20042;-80
2022/09/07 00:48:52;;;;;;;7.53;3.50;;;;;;;-144.47;100.00;61586.06;4999953;28;20390;-78
2022/09/07 00:51:24;;;;;;;6.85;2.92;;;;;;;-144.47;100.00;61586.06;5000178;28;20048;-77
2022/09/07 00:53:54;;;;;;;4.40;3.08;;;;;;;-144.47;100.00;61586.06;5004781;28;20699;-77
2022/09/07 00:56:23;;;;;;;6.50;2.80;;;;;;;-144.47;100.00;61586.06;4999417;28;20550;-78
2022/09/07 00:58:48;;;;;;;5.38;3.45;;;;;;;-144.47;100.00;61586.06;5001006;28;20045;-78
2022/09/07 01:01:16;;;;;;;3.97;2.97;;;;;;;-144.47;100.00;61586.06;4997657;28;20038;-78
2022/09/07 01:03:46;;;;;;;7.25;3.03;;;;;;;-144.47;100.00;61586.06;5030090;28;20039;-78
2022/09/07 01:06:18;;;;;;;6.00;3.30;;;;;;;-144.47;100.00;61586.06;4998171;28;20097;-76
2022/09/07 01:08:48;;;;;;;3.63;2.78;;;;;;;-144.47;100.00;61586.06;5001527;28;20054;-78
2022/09/07 01:11:15;;;;;;;5.20;3.08;;;;;;;-144.47;100.00;61586.06;4999175;28;20039;-78
2022/09/07 01:13:43;;;;;;;6.18;2.90;;;;;;;-144.47;100.00;61586.06;5000224;28;20507;-78
2022/09/07 01:16:21;;;;;;;14.48;3.85;;;;;;;-144.47;100.00;61586.06;5000481;28;20042;-78
2022/09/07 01:19:22;;;;;;;3.13;2.83;;;;;;;-144.47;100.00;61586.06;4998850;28;20498;-79
2022/09/07 01:22:17;;;;;;;5.47;2.90;;;;;;;-144.47;100.00;61586.06;5000655;28;20030;-80
2022/09/07 01:25:13;;;;;;;5.68;2.90;;;;;;;-144.47;100.00;61586.06;4999315;28;20124;-79
2022/09/07 01:27:56;;;;;;;6.82;3.72;;;;;;;-144.47;100.00;61586.06;4999828;28;20038;-80
2022/09/07 01:30:23;;;;;;;3.90;2.75;;;;;;;-144.47;100.00;61586.06;5002179;28;20359;-80
2022/09/07 01:33:18;;;;;;;6.53;3.38;;;;;;;-144.47;100.00;61586.06;4998458;28;20462;-81
2022/09/07 01:35:57;;;;;;;4.18;3.13;;;;;;;-144.47;100.00;61586.06;4999804;28;20034;-79
2022/09/07 01:38:43;;;;;;;4.82;3.08;;;;;;;-144.47;100.00;61586.06;5018295;28;21017;-80
2022/09/07 01:41:20;;;;;;;8.93;4.00;;;;;;;-144.47;100.00;61586.06;5028197;28;20041;-80
2022/09/07 01:43:54;;;;;;;3.63;2.60;;;;;;;-144.47;100.00;61586.06;5003030;28;20040;-79
2022/09/07 01:46:29;;;;;;;6.07;3.17;;;;;;;-144.47;100.00;61586.06;4997726;28;20037;-79
2022/09/07 01:49:03;;;;;;;3.42;2.97;;;;;;;-144.47;100.00;61586.06;5030228;28;20037;-79
2022/09/07 01:51:32;;;;;;;3.80;3.50;;;;;;;-144.47;100.00;61586.06;5000527;28;20393;-79
2022/09/07 01:54:06;;;;;;;4.13;2.80;;;;;;;-144.47;100.00;61586.06;5015000;28;20049;-79
2022/09/07 01:56:37;;;;;;;4.55;3.00;;;;;;;-144.47;100.00;61586.06;4997047;28;20026;-80
2022/09/07 01:59:26;;;;;;;5.53;3.13;;;;;;;-144.47;100.00;61586.06;5002957;28;20041;-80
2022/09/07 02:02:07;;;;;;;4.30;2.70;;;;;;;-144.47;100.00;61586.06;4998805;28;20046;-80
2022/09/07 02:04:51;;;;;;;4.80;3.10;;;;;;;-144.47;100.00;61586.06;4996176;28;20177;-80
2022/09/07 02:07:35;;;;;;;6.47;3.17;;;;;;;-144.47;100.00;61586.06;4997925;28;20046;-80
2022/09/07 02:10:10;;;;;;;5.78;3.83;;;;;;;-144.47;100.00;61586.06;5001925;28;20042;-79
2022/09/07 02:12:41;;;;;;;3.83;3.30;;;;;;;-144.47;100.00;61586.06;5000206;28;20084;-78
2022/09/07 02:15:15;;;;;;;6.03;3.35;;;;;;;-144.47;100.00;61586.06;5000463;28;20039;-77
2022/09/07 02:17:49;;;;;;;6.00;3.47;;;;;;;42.00;100.00;61586.06;5000086;28;20026;-78
2022/09/07 02:20:37;;;;;;;4.13;3.70;;;;;;;187.31;100.00;61586.06;4998464;28;20121;-79
2022/09/07 02:23:13;;;;;;;4.22;3.60;;;;;;;-144.47;100.00;61586.06;5000113;28;20091;-79
2022/09/07 02:25:47;;;;;;;6.35;3.42;;;;;;;-144.47;100.00;61586.06;5000355;28;20117;-78
2022/09/07 02:28:18;;;;;;;4.75;3.63;;;;;;;-144.47;100.00;61586.06;4999841;28;20042;-77
2022/09/07 02:30:43;;;;;;;6.40;3.50;;;;;;;-144.47;100.00;61586.06;4999564;28;20041;-77
2022/09/07 02:33:09;;;;;;;5.43;3.63;;;;;;;-144.47;100.00;61586.06;4998392;28;20038;-77
2022/09/07 02:35:35;;;;;;;6.43;3.95;;;;;;;104.25;100.00;61586.06;5000440;28;20053;-78
2022/09/07 02:38:04;;;;;;;5.53;3.40;;;;;;;-144.47;100.00;61586.06;4996645;28;20072;-78
2022/09/07 02:40:31;;;;;;;3.90;3.28;;;;;;;187.31;100.00;61586.06;4992279;28;20038;-78
2022/09/07 02:43:02;;;;;;;9.55;3.33;;;;;;;104.25;100.00;61586.06;4999372;28;20046;-78
2022/09/07 02:45:37;;;;;;;5.88;3.80;;;;;;;-144.47;100.00;61586.06;5004458;28;20038;-79
2022/09/07 02:48:25;;;;;;;5.25;3.53;;;;;;;-144.47;100.00;61586.06;5003043;28;20133;-76
2022/09/07 02:51:19;;;;;;;6.93;3.53;;;;;;;22.43;100.00;61586.06;5004514;28;20065;-78
2022/09/07 02:53:57;;;;;;;4.53;3.17;;;;;;;-144.47;100.00;61586.06;4997022;28;20101;-78
2022/09/07 02:56:50;;;;;;;5.75;3.33;;;;;;;-144.47;100.00;61586.06;5000525;28;20027;-79
2022/09/07 02:59:38;;;;;;;7.13;3.28;;;;;;;-144.47;100.00;61586.06;5001762;28;20073;-79
2022/09/07 03:02:40;;;;;;;3.92;3.35;;;;;;;104.25;100.00;61586.06;5001937;28;20041;-77
2022/09/07 03:05:32;;;;;;;4.65;3.78;;;;;;;187.31;100.00;61586.06;5000008;28;20054;-79
2022/09/07 03:08:05;;;;;;;5.10;4.15;;;;;;;104.25;100.00;61586.06;4997803;28;20042;-78
2022/09/07 03:10:31;;;;;;;4.70;3.17;;;;;;;104.25;100.00;61586.06;5000754;28;20112;-79
2022/09/07 03:12:57;;;;;;;4.85;3.20;;;;;;;23.85;100.00;61586.06;5004936;28;20147;-78
2022/09/07 03:15:25;;;;;;;5.47;3.65;;;;;;;104.25;100.00;61586.06;5002142;28;20088;-79
2022/09/07 03:17:52;;;;;;;6.05;3.53;;;;;;;104.25;100.00;61586.06;5019424;28;20133;-79
2022/09/07 03:20:19;;;;;;;4.93;3.33;;;;;;;-144.47;100.00;61586.06;5017503;28;20419;-79
2022/09/07 03:22:47;;;;;;;5.82;3.60;;;;;;;104.25;100.00;61586.06;5005023;28;20027;-79
2022/09/07 03:25:13;;;;;;;5.25;3.50;;;;;;;187.31;100.00;61586.06;5006173;28;20034;-79
2022/09/07 03:27:39;;;;;;;7.85;3.40;;;;;;;31.63;100.00;61586.06;5007374;28;20506;-79
2022/09/07 03:30:07;;;;;;;8.50;3.55;;;;;;;187.31;100.00;61586.06;5003731;28;20026;-78
2022/09/07 03:32:34;;;;;;;5.78;3.30;;;;;;;42.00;100.00;61586.06;4998816;28;20800;-79
2022/09/07 03:35:01;;;;;;;5.47;3.63;;;;;;;104.25;100.00;61586.06;5002661;28;20058;-78
2022/09/07 03:37:27;;;;;;;6.10;4.18;;;;;;;187.31;100.00;61586.06;4999115;28;20037;-80
2022/09/07 03:39:53;;;;;;;5.03;4.13;;;;;;;187.31;100.00;61586.06;5003113;28;20042;-80
2022/09/07 03:42:19;;;;;;;7.68;3.90;;;;;;;-144.47;100.00;61586.06;5001819;28;20089;-79
2022/09/07 03:44:44;;;;;;;8.30;3.58;;;;;;;-144.47;100.00;61586.06;5003560;28;20034;-78
2022/09/07 03:47:10;;;;;;;6.30;3.90;;;;;;;104.25;100.00;61586.06;5003376;28;20036;-79
2022/09/07 03:49:36;;;;;;;5.97;3.92;;;;;;;104.25;100.00;61586.06;5000484;28;20364;-80
2022/09/07 03:52:02;;;;;;;6.72;3.90;;;;;;;-144.47;100.00;61586.06;5005046;28;20483;-79
2022/09/07 03:54:28;;;;;;;4.60;3.75;;;;;;;-144.47;100.00;61586.06;4999093;28;20394;-78
2022/09/07 03:56:53;;;;;;;4.95;3.63;;;;;;;187.31;100.00;61586.06;5001289;28;20037;-77
2022/09/07 03:59:19;;;;;;;5.40;3.70;;;;;;;187.31;100.00;61586.06;5002054;28;20030;-77
2022/09/07 04:01:44;;;;;;;3.95;3.65;;;;;;;187.31;100.00;61586.06;5001099;28;20440;-77
2022/09/07 04:04:10;;;;;;;6.43;4.30;;;;;;;187.31;100.00;61586.06;5001559;28;20474;-77
2022/09/07 04:06:35;;;;;;;6.53;4.00;;;;;;;187.31;100.00;61586.06;5002701;28;20046;-77
2022/09/07 04:09:11;;;;;;;4.88;3.83;;;;;;;187.31;100.00;61586.06;5002384;28;20034;-78
2022/09/07 04:11:39;;;;;;;4.72;3.45;;;;;;;187.31;100.00;61586.06;5002164;28;20065;-78
2022/09/07 04:14:05;;;;;;;4.15;3.75;;;;;;;187.31;100.00;61586.06;4998764;28;20548;-78
2022/09/07 04:16:31;;;;;;;4.38;3.53;;;;;;;187.31;100.00;61586.06;5002145;28;20109;-76
2022/09/07 04:18:57;;;;;;;5.22;3.70;;;;;;;187.31;100.00;61586.06;5000202;28;20050;-78
2022/09/07 04:21:24;;;;;;;3.80;3.38;;;;;;;42.00;100.00;61586.06;5002647;28;20074;-79
2022/09/07 04:23:51;;;;;;;7.10;3.60;;;;;;;104.25;100.00;61586.06;5001032;28;20030;-78
2022/09/07 04:26:18;;;;;;;4.43;3.58;;;;;;;187.31;100.00;61586.06;5003308;28;20116;-77
2022/09/07 04:28:44;;;;;;;3.92;3.63;;;;;;;187.31;100.00;61586.06;4999641;28;20881;-77
2022/09/07 04:31:10;;;;;;;5.47;3.60;;;;;;;-144.47;100.00;61586.06;4981257;28;20424;-78
2022/09/07 04:33:36;;;;;;;5.07;3.90;;;;;;;-144.47;100.00;61586.06;4998856;28;20022;-78
2022/09/07 04:36:02;;;;;;;5.50;4.03;;;;;;;-144.47;100.00;61586.06;5003564;28;20037;-78
2022/09/07 04:38:29;;;;;;;7.70;4.32;;;;;;;-144.47;100.00;61586.06;5001533;28;20125;-78
2022/09/07 04:41:05;;;;;;;5.85;4.00;;;;;;;-144.47;100.00;61586.06;5002416;28;20131;-78
2022/09/07 04:43:31;;;;;;;5.93;3.63;;;;;;;-144.47;100.00;61586.06;4995249;28;20147;-77
2022/09/07 04:45:57;;;;;;;4.85;4.35;;;;;;;-144.47;100.00;61586.06;5002487;28;20120;-78
2022/09/07 04:48:22;;;;;;;6.25;4.07;;;;;;;21.19;100.00;81774.81;4999137;28;20038;-77
2022/09/07 04:50:48;;;;;;;4.65;3.83;;;;;;;187.31;100.00;61586.06;5002081;28;20033;-77
2022/09/07 04:53:13;;;;;;;7.28;4.60;;;;;;;21.23;100.00;61586.06;4998797;28;20501;-76
2022/09/07 04:55:39;;;;;;;4.60;4.10;;;;;;;187.31;100.00;61586.06;5002124;28;20475;-77
2022/09/07 04:58:05;;;;;;;4.70;4.15;;;;;;;-144.47;100.00;61586.06;5000384;28;20034;-76
2022/09/07 05:00:30;;;;;;;9.35;5.18;;;;;;;-144.47;100.00;61586.06;5001330;28;20076;-78
2022/09/07 05:02:56;;;;;;;8.57;4.63;;;;;;;-144.47;100.00;61586.06;5009430;28;20107;-78
2022/09/07 05:05:21;;;;;;;5.80;3.95;;;;;;;-144.47;100.00;61586.06;5001077;28;20033;-78
2022/09/07 05:07:47;;;;;;;5.65;4.47;;;;;;;-144.47;100.00;61586.06;5002265;28;20046;-78
2022/09/07 05:10:12;;;;;;;8.70;4.50;;;;;;;-144.47;100.00;61586.06;5000053;28;20553;-76
2022/09/07 05:12:38;;;;;;;6.82;4.72;;;;;;;-144.47;100.00;61586.06;5001950;28;20108;-77
2022/09/07 05:15:04;;;;;;;6.10;4.18;;;;;;;-144.47;100.00;61586.06;4995413;28;20061;-78
2022/09/07 05:17:29;;;;;;;9.93;5.10;;;;;;;-144.47;100.00;61586.06;5004939;28;20057;-78
2022/09/07 05:19:56;;;;;;;5.00;4.22;;;;;;;-144.47;100.00;61586.06;4997627;28;20061;-78
2022/09/07 05:22:21;;;;;;;6.60;4.32;;;;;;;-144.47;100.00;61586.06;5001124;28;20465;-80
2022/09/07 05:24:47;;;;;;;6.07;4.55;;;;;;;-144.47;100.00;61586.06;5000083;28;20030;-77
2022/09/07 05:27:12;;;;;;;7.28;4.90;;;;;;;-144.47;100.00;61586.06;4999173;28;20046;-78
2022/09/07 05:29:38;;;;;;;7.30;5.03;;;;;;;-144.47;100.00;61586.06;4998760;28;20054;-78
2022/09/07 05:32:03;;;;;;;5.63;4.40;;;;;;;-144.47;100.00;61586.06;5001324;28;20069;-77
2022/09/07 05:34:29;;;;;;;7.63;4.72;;;;;;;-144.47;100.00;61586.06;4998832;28;20027;-78
2022/09/07 05:36:55;;;;;;;10.43;4.95;;;;;;;-144.47;100.00;61586.06;5004338;28;20033;-78
2022/09/07 05:39:20;;;;;;;5.65;4.93;;;;;;;21.41;nan;99723.00;4998555;28;20042;-76
2022/09/07 05:41:46;;;;;;;8.30;4.80;;;;;;;21.49;nan;99720.13;5001610;28;20498;-78
2022/09/07 05:44:13;;;;;;;4.75;4.35;;;;;;;21.58;nan;99710.78;4999592;28;20065;-79
2022/09/07 05:46:39;;;;;;;5.55;5.05;;;;;;;21.63;nan;99719.03;4999624;28;20040;-78
2022/09/07 05:49:06;;;;;;;7.28;4.80;;;;;;;21.72;nan;99726.88;4997515;28;20086;-79
2022/09/07 05:51:32;;;;;;;7.88;4.78;;;;;;;21.81;nan;99741.72;4995671;28;20053;-79
2022/09/07 05:53:58;;;;;;;7.07;4.75;;;;;;;21.84;nan;99747.50;5001704;28;20030;-80
2022/09/07 05:56:24;;;;;;;6.88;5.50;;;;;;;21.84;nan;99757.44;4999719;28;20038;-79
2022/09/07 05:58:50;;;;;;;6.30;4.88;;;;;;;21.83;nan;99766.50;4999518;28;20079;-79
2022/09/07 06:01:16;;;;;;;5.40;4.63;;;;;;;21.82;nan;99775.59;5001601;28;20038;-78
2022/09/07 06:03:43;;;;;;;5.97;5.38;;;;;;;-144.47;100.00;61586.06;5001646;28;20065;-84
2022/09/07 06:06:17;;;;;;;6.15;5.60;;;;;;;-144.47;100.00;61586.06;4996083;28;20058;-82
2022/09/07 06:08:46;;;;;;;7.65;5.05;;;;;;;-144.47;100.00;61586.06;5000621;28;20034;-83
2022/09/07 06:11:13;;;;;;;9.48;4.97;;;;;;;-144.47;100.00;61586.06;5002011;28;20073;-82
2022/09/07 06:13:40;;;;;;;7.22;5.45;;;;;;;-144.47;100.00;61586.06;4998913;28;20018;-82
2022/09/07 06:16:07;;;;;;;8.23;5.82;;;;;;;-144.47;100.00;61586.06;4999310;28;20042;-84
2022/09/07 06:18:34;;;;;;;6.25;5.10;;;;;;;-144.47;100.00;61586.06;5000549;28;20425;-80
2022/09/07 06:21:10;;;;;;;8.85;5.30;;;;;;;-144.47;100.00;61586.06;5004082;28;20062;-83
2022/09/07 06:23:38;;;;;;;6.22;5.03;;;;;;;-144.47;100.00;61586.06;5001252;28;20045;-82
2022/09/07 06:26:04;;;;;;;8.88;4.97;;;;;;;-144.47;100.00;61586.06;5003564;28;20042;-82
2022/09/07 06:28:33;;;;;;;5.60;4.65;;;;;;;-144.47;100.00;61586.06;5004156;28;20032;-80
2022/09/07 06:31:03;;;;;;;6.88;5.63;;;;;;;104.25;100.00;61586.06;5003899;28;20058;-83
2022/09/07 06:33:29;;;;;;;9.10;4.90;;;;;;;-144.47;100.00;61586.06;4998698;28;20061;-80
2022/09/07 06:35:59;;;;;;;9.82;5.88;;;;;;;21.80;100.00;61586.06;5004885;28;20594;-83
2022/09/07 06:38:29;;;;;;;8.48;5.03;;;;;;;187.31;100.00;61586.06;5004856;28;20034;-82
2022/09/07 06:41:03;;;;;;;5.03;4.63;;;;;;;62.74;100.00;61586.06;5006663;28;20076;-81
2022/09/07 06:43:29;;;;;;;8.60;6.00;;;;;;;62.74;100.00;61586.06;5004386;28;20715;-79
2022/09/07 06:45:54;;;;;;;6.72;5.00;;;;;;;26.45;100.00;61586.06;4999078;28;20034;-80
2022/09/07 06:48:20;;;;;;;6.15;5.57;;;;;;;62.74;100.00;61586.06;5004589;28;20041;-79
2022/09/07 06:51:02;;;;;;;6.78;4.75;;;;;;;23.85;100.00;61586.06;4992515;28;20033;-80
2022/09/07 06:53:33;;;;;;;10.05;5.63;;;;;;;22.31;100.00;61586.06;4979634;28;20520;-78
2022/09/07 06:55:59;;;;;;;5.75;4.93;;;;;;;22.56;100.00;61586.06;4992107;28;20390;-76
2022/09/07 06:58:25;;;;;;;8.45;5.03;;;;;;;22.56;100.00;61586.06;4992695;28;20029;-77
2022/09/07 07:00:50;;;;;;;5.55;4.53;;;;;;;22.47;100.00;61586.06;4997035;28;20035;-84
2022/09/07 07:03:16;;;;;;;6.38;5.35;;;;;;;22.56;100.00;83180.34;5002848;28;20031;-78
2022/09/07 07:05:52;;;;;;;6.88;4.70;;;;;;;22.88;100.00;61586.06;5005838;28;20115;-76
2022/09/07 07:08:18;;;;;;;8.02;5.07;;;;;;;23.85;100.00;61586.06;4998313;28;20050;-80
2022/09/07 07:10:44;;;;;;;5.38;4.65;;;;;;;26.45;100.00;61586.06;4994636;28;20442;-76
2022/09/07 07:13:09;;;;;;;8.30;5.53;;;;;;;31.63;100.00;61586.06;4989213;28;20119;-78
2022/09/07 07:15:35;;;;;;;7.20;4.80;;;;;;;23.21;100.00;61586.06;5005875;28;20252;-81
2022/09/07 07:18:00;;;;;;;8.35;4.45;;;;;;;23.85;100.00;61586.06;4992028;28;20042;-79
2022/09/07 07:20:26;;;;;;;5.20;4.70;;;;;;;22.80;100.00;61586.06;4990195;28;20030;-79
2022/09/07 07:22:52;;;;;;;7.45;4.97;;;;;;;26.45;100.00;61586.06;5005708;28;20434;-81
2022/09/07 07:25:17;;;;;;;6.13;5.00;;;;;;;31.63;100.00;61586.06;5004796;28;20036;-78
2022/09/07 07:27:44;;;;;;;4.93;4.50;;;;;;;26.45;100.00;61586.06;5001873;28;20026;-84
2022/09/07 07:30:16;;;;;;;7.18;4.53;;;;;;;-144.47;100.00;61586.06;5005714;28;20113;-78
2022/09/07 07:32:44;;;;;;;5.47;4.82;;;;;;;187.31;100.00;61586.06;5001862;28;20029;-78
2022/09/07 07:35:11;;;;;;;7.03;4.68;;;;;;;23.01;nan;99776.78;5007211;28;20080;-78
2022/09/07 07:37:37;;;;;;;6.80;4.45;;;;;;;23.11;nan;99782.50;5009456;28;20038;-77
2022/09/07 07:40:05;;;;;;;8.85;4.47;;;;;;;23.20;nan;99786.59;5008676;28;20026;-83
2022/09/07 07:42:31;;;;;;;8.38;4.40;;;;;;;23.28;nan;99794.38;5004978;28;20038;-82
2022/09/07 07:44:57;;;;;;;5.40;4.22;;;;;;;23.34;nan;99789.16;5002226;28;20717;-76
2022/09/07 07:47:23;;;;;;;7.47;4.57;;;;;;;23.40;nan;99780.19;5001536;28;20041;-79
2022/09/07 07:49:48;;;;;;;8.52;4.15;;;;;;;23.44;nan;99778.72;5007768;28;20042;-82
2022/09/07 07:52:15;;;;;;;6.35;4.20;;;;;;;23.49;nan;99784.31;5005763;28;20379;-78
2022/09/07 07:54:41;;;;;;;11.45;4.40;;;;;;;23.57;nan;99784.84;5002889;28;20407;-79
2022/09/07 07:57:06;;;;;;;6.43;4.63;;;;;;;23.78;nan;99788.19;5002611;28;20041;-77
2022/09/07 07:59:32;;;;;;;7.20;4.10;;;;;;;23.95;nan;99790.06;5003191;28;20030;-80
2022/09/07 08:02:03;;;;;;;6.63;4.30;;;;;;;24.01;nan;99778.41;5001694;28;20073;-84
2022/09/07 08:04:29;;;;;;;5.43;4.72;;;;;;;24.06;nan;99800.09;4998542;28;20058;-84
2022/09/07 08:06:55;;;;;;;6.65;4.38;;;;;;;24.11;nan;99793.22;5035610;28;20099;-81
2022/09/07 08:09:21;;;;;;;6.18;4.75;;;;;;;24.07;nan;99792.84;4998221;28;20045;-78
2022/09/07 08:11:47;;;;;;;8.35;4.97;;;;;;;24.07;nan;99793.66;4999275;28;20041;-80
2022/09/07 08:14:12;;;;;;;4.95;4.55;;;;;;;24.05;nan;99800.31;5000115;28;20395;-79
2022/09/07 08:16:38;;;;;;;7.15;4.50;;;;;;;24.13;nan;99799.22;5003361;28;20022;-82
2022/09/07 08:19:04;;;;;;;4.40;3.92;;;;;;;24.25;nan;99800.16;5011851;28;20038;-83
2022/09/07 08:21:30;;;;;;;5.18;4.40;;;;;;;24.24;nan;99793.91;5008347;28;20107;-80
2022/09/07 08:23:55;;;;;;;8.77;4.82;;;;;;;24.28;nan;99799.69;4999249;28;20061;-78
2022/09/07 08:26:21;;;;;;;8.18;4.40;;;;;;;24.29;nan;99795.94;5000312;28;20042;-78
2022/09/07 08:28:47;;;;;;;7.97;5.03;;;;;;;24.31;nan;99796.53;5002341;28;20022;-77
2022/09/07 08:31:14;;;;;;;8.07;4.40;;;;;;;24.36;nan;99791.28;5001378;28;20038;-77
2022/09/07 08:33:40;;;;;;;5.00;4.10;;;;;;;24.41;nan;99788.72;5000971;28;20030;-76
2022/09/07 08:36:09;;;;;;;7.75;4.30;;;;;;;24.43;nan;99792.03;5001892;28;20119;-78
2022/09/07 08:38:35;;;;;;;9.02;4.72;;;;;;;24.39;nan;99791.66;5001441;28;20066;-85
2022/09/07 08:41:13;;;;;;;6.93;4.43;;;;;;;24.32;nan;99806.28;5003406;28;20058;-84
2022/09/07 08:43:58;;;;;;;9.23;4.30;;;;;;;24.29;nan;99795.94;4999365;28;20030;-85
2022/09/07 08:46:57;;;;;;;5.35;3.47;;;;;;;24.37;nan;99787.53;5000042;28;20053;-86
2022/09/07 08:49:39;;;;;;;6.70;3.88;;;;;;;24.40;nan;99787.09;5002290;28;20120;-86
2022/09/07 08:52:24;;;;;;;6.70;3.75;;;;;;;24.44;nan;99778.34;4988797;28;20069;-80
2022/09/07 08:55:08;;;;;;;4.53;4.13;;;;;;;24.47;nan;99785.13;4990694;28;20030;-81
2022/09/07 08:57:39;;;;;;;7.93;4.60;;;;;;;24.52;nan;99787.97;4986516;28;20500;-79
2022/09/07 09:00:15;;;;;;;;;;;;;;;24.59;nan;99787.88;4991563;28;20125;-80
2022/09/07 09:02:40;;;;;;;5.88;4.57;;;;;;;24.67;nan;99784.88;4989388;28;19924;-81
2022/09/07 09:05:33;;;;;;;7.45;4.07;;;;;;;24.68;nan;99779.22;4986083;28;20035;-84
2022/09/07 09:08:13;;;;;;;6.78;4.75;;;;;;;24.63;nan;99780.97;4953798;28;20125;-78
2022/09/07 09:10:57;;;;;;;5.28;4.78;;;;;;;24.59;nan;99779.78;4989775;28;20106;-78
2022/09/07 09:13:40;;;;;;;5.63;4.78;;;;;;;24.62;nan;99780.19;4983774;28;20129;-85
2022/09/07 09:16:18;;;;;;;6.32;3.90;;;;;;;24.70;nan;99782.53;5013868;28;20038;-80
2022/09/07 09:18:59;;;;;;;4.30;3.90;;;;;;;24.77;nan;99783.28;4985960;28;20511;-84
2022/09/07 09:21:26;;;;;;;6.43;4.13;;;;;;;24.84;nan;99784.00;4987610;28;20034;-84
2022/09/07 09:23:59;;;;;;;10.27;5.03;;;;;;;24.85;nan;99779.44;4991532;28;20723;-79
2022/09/07 09:26:27;;;;;;;7.90;4.07;;;;;;;24.82;nan;99769.91;4989317;28;20487;-79
2022/09/07 09:28:53;;;;;;;6.15;3.50;;;;;;;24.90;nan;99773.38;4985195;28;20439;-88
2022/09/07 09:31:21;;;;;;;6.13;4.40;;;;;;;24.95;nan;99768.09;4991821;28;20145;-83
2022/09/07 09:34:08;;;;;;;8.27;3.50;;;;;;;24.99;nan;99758.47;4990443;28;20174;-85
2022/09/07 09:36:43;;;;;;;4.60;3.70;;;;;;;25.05;nan;99746.75;4988360;28;20039;-80
2022/09/07 09:39:27;;;;;;;5.88;3.83;;;;;;;25.10;nan;99728.78;4986182;28;20224;-82
2022/09/07 09:41:56;;;;;;;3.80;3.20;;;;;;;25.13;nan;99722.13;4986069;28;20034;-80
2022/09/07 09:44:25;;;;;;;4.90;3.70;;;;;;;25.12;nan;99725.88;4988916;28;20038;-80
2022/09/07 09:46:53;;;;;;;4.70;3.80;;;;;;;25.16;nan;99721.63;4988485;28;20034;-80
2022/09/07 09:49:25;;;;;;;6.03;4.57;;;;;;;25.24;nan;99729.41;4986157;28;20034;-84
2022/09/07 09:51:55;;;;;;;3.85;3.45;;;;;;;25.27;nan;99745.16;4988249;28;20038;-81
2022/09/07 09:54:26;;;;;;;;;;;;;;;25.23;nan;99754.75;4993165;28;20042;-80
2022/09/07 09:56:52;;;;;;;5.22;3.40;;;;;;;25.26;nan;99759.72;5022286;28;19922;-77
2022/09/07 09:59:17;;;;;;;5.15;3.78;;;;;;;25.30;nan;99755.47;4988500;28;20499;-80
2022/09/07 10:01:49;;;;;;;6.65;3.47;;;;;;;25.35;nan;99752.91;4992853;28;20030;-80
2022/09/07 10:04:24;;;;;;;3.60;3.28;;;;;;;25.35;nan;99758.31;4994469;28;20031;-80
2022/09/07 10:06:51;;;;;;;4.75;3.28;;;;;;;25.37;nan;99756.19;4994243;28;20057;-78
2022/09/07 10:09:32;;;;;;;3.80;3.47;;;;;;;25.38;nan;99751.63;4992211;28;20058;-80
2022/09/07 10:11:59;;;;;;;5.35;3.65;;;;;;;25.40;nan;99744.91;4994505;28;20050;-78
2022/09/07 10:14:44;;;;;;;4.03;3.63;;;;;;;25.47;nan;99752.91;4997782;28;20045;-79
2022/09/07 10:17:29;;;;;;;5.07;3.97;;;;;;;25.53;nan;99744.69;4992727;28;20045;-80
2022/09/07 10:20:14;;;;;;;4.43;3.38;;;;;;;25.56;nan;99752.38;4989396;28;20046;-80
2022/09/07 10:22:43;;;;;;;4.28;3.40;;;;;;;25.55;nan;99753.38;4991493;28;20038;-79
2022/09/07 10:25:38;;;;;;;5.13;3.75;;;;;;;25.54;nan;99749.03;5003263;28;20035;-80
2022/09/07 10:28:12;;;;;;;7.28;3.75;;;;;;;25.53;nan;99754.66;4990198;28;20092;-81
2022/09/07 10:30:53;;;;;;;5.60;4.00;;;;;;;25.45;nan;99758.53;4989965;28;20094;-81
2022/09/07 10:33:45;;;;;;;6.10;4.28;;;;;;;25.41;nan;99746.56;4990341;28;20046;-80
2022/09/07 10:36:22;;;;;;;6.55;3.75;;;;;;;25.40;nan;99753.00;4987333;28;20084;-80
2022/09/07 10:38:58;;;;;;;7.40;4.32;;;;;;;25.39;nan;99762.16;4986716;28;20460;-83
2022/09/07 10:41:39;;;;;;;22.30;4.60;;;;;;;25.40;nan;99755.72;4988908;28;20557;-84
2022/09/07 10:44:32;;;;;;;6.93;3.60;;;;;;;25.45;nan;99753.13;4987724;28;20042;-86
2022/09/07 10:47:05;;;;;;;9.05;4.10;;;;;;;25.46;nan;99760.19;4989904;28;20427;-81
2022/09/07 10:49:44;;;;;;;5.25;4.47;;;;;;;25.46;nan;99748.56;5022725;28;20058;-85
2022/09/07 10:52:18;;;;;;;6.20;4.63;;;;;;;25.47;nan;99751.03;4298331;28;10000974;-88
2022/09/07 10:55:15;;;;;;;8.43;5.03;;;;;;;25.49;nan;99751.63;5018515;28;20440;-85
2022/09/07 10:57:59;;;;;;;5.97;4.30;;;;;;;25.50;nan;99744.34;4989377;28;20042;-88
2022/09/07 11:00:33;;;;;;;9.07;4.90;;;;;;;25.54;nan;99743.63;4989654;28;20037;-84
2022/09/07 11:03:20;;;;;;;7.53;5.63;;;;;;;25.57;nan;99740.47;4998645;28;20039;-88
2022/09/07 11:06:08;;;;;;;11.27;5.72;;;;;;;25.60;nan;99740.03;5007861;28;20022;-87
2022/09/07 11:09:18;;;;;;;6.43;5.40;;;;;;;25.58;nan;99731.31;5001271;28;20018;-81
2022/09/07 11:11:59;;;;;;;6.45;5.03;;;;;;;25.64;nan;99724.97;5012549;28;20541;-81
2022/09/07 11:14:27;;;;;;;7.53;5.15;;;;;;;25.60;nan;99721.09;5003890;28;20026;-85
2022/09/07 11:17:02;;;;;;;6.80;4.60;;;;;;;25.71;nan;99705.94;4992350;28;20125;-86
2022/09/07 11:19:38;;;;;;;6.03;5.00;;;;;;;25.82;nan;99699.69;4995189;28;20041;-88
2022/09/07 11:22:28;;;;;;;6.90;6.00;;;;;;;25.83;nan;99701.31;4996391;28;20034;-87
2022/09/07 11:25:14;;;;;;;8.23;5.55;;;;;;;25.88;nan;99697.91;4990209;28;20498;-89
2022/09/07 11:27:48;;;;;;;6.78;4.22;;;;;;;25.93;nan;99692.59;4988340;28;20100;-86
2022/09/07 11:30:21;;;;;;;6.53;4.53;;;;;;;26.00;nan;99685.19;4987595;28;20057;-84
2022/09/07 11:32:55;;;;;;;6.60;5.40;;;;;;;26.09;nan;99686.47;4989200;28;20191;-82
2022/09/07 11:35:32;;;;;;;9.32;5.47;;;;;;;26.14;nan;99686.56;5019482;28;20053;-89
2022/09/07 11:38:11;;;;;;;6.65;5.15;;;;;;;26.14;nan;99681.16;4986840;28;20149;-86
2022/09/07 11:40:51;;;;;;;6.40;5.33;;;;;;;26.14;nan;99670.31;4640255;28;10000357;-88
2022/09/07 11:43:30;;;;;;;10.43;4.85;;;;;;;26.20;nan;99663.94;4990283;28;20093;-89
2022/09/07 11:46:13;;;;;;;9.90;4.82;;;;;;;26.21;nan;99664.78;4990375;28;20034;-84
2022/09/07 11:49:02;;;;;;;13.25;5.75;;;;;;;26.14;nan;99653.28;4989093;28;20030;-85